Time;durP1;ratioP1;P1;durP2;ratioP2;P2;SDS_P1;SDS_P2;PMS_P1;PMS_P2;Temp;Humidity;BMP_temperature;BMP_pressure;BME280_temperature;BME280_humidity;BME280_pressure;Samples;Min_cycle;Max_cycle;Signal;HPM_P1;HPM_P2
2023/05/15 00:01:35;;;;;;;2.47;1.85;;;14.90;99.90;;;15.16;100.00;100737.19;5108173;28;20050;-91
2023/05/15 00:04:07;;;;;;;2.38;1.70;;;14.90;99.90;;;15.09;100.00;100735.34;5142160;28;20043;-91
2023/05/15 00:06:40;;;;;;;3.00;2.00;;;14.80;99.90;;;15.05;100.00;100741.38;5112853;28;20059;-88
2023/05/15 00:09:13;;;;;;;2.60;1.95;;;14.70;99.90;;;14.99;100.00;100725.53;5106937;28;20085;-91
2023/05/15 00:11:46;;;;;;;4.18;1.80;;;14.70;99.90;;;14.95;100.00;100736.88;5107838;28;20094;-90
2023/05/15 00:14:18;;;;;;;2.08;1.65;;;14.60;99.90;;;14.90;100.00;100724.53;5111896;28;20422;-92
2023/05/15 00:16:50;;;;;;;2.83;1.95;;;14.60;99.90;;;14.86;100.00;100727.06;5119767;28;20055;-91
2023/05/15 00:19:24;;;;;;;3.33;1.92;;;14.60;99.90;;;14.81;100.00;100727.03;5134000;28;20079;-91
2023/05/15 00:21:56;;;;;;;3.25;1.92;;;14.50;99.90;;;14.77;100.00;100733.06;5098822;28;20126;-90
2023/05/15 00:24:30;;;;;;;2.67;2.03;;;14.50;99.90;;;14.75;100.00;100726.03;5119828;28;21611;-91
2023/05/15 00:27:03;;;;;;;2.20;1.77;;;14.50;99.90;;;14.74;100.00;100727.78;5132972;28;20607;-91
2023/05/15 00:29:37;;;;;;;3.25;2.10;;;14.50;99.90;;;14.76;100.00;100718.19;5133332;28;20105;-91
2023/05/15 00:32:11;;;;;;;2.72;1.83;;;14.50;99.90;;;14.77;100.00;100717.31;5145459;28;20054;-90
2023/05/15 00:34:43;;;;;;;2.80;1.92;;;14.50;99.90;;;14.79;100.00;100715.59;5136667;28;20507;-89
2023/05/15 00:37:17;;;;;;;3.10;1.85;;;14.50;99.90;;;14.79;100.00;100720.84;5131060;28;20043;-90
2023/05/15 00:39:51;;;;;;;3.15;2.05;;;14.50;99.90;;;14.80;100.00;100716.47;5136719;28;20053;-91
2023/05/15 00:42:25;;;;;;;4.90;2.65;;;14.50;99.90;;;14.72;100.00;100724.22;5105953;28;20065;-90
2023/05/15 00:44:58;;;;;;;4.05;2.40;;;14.50;99.90;;;14.69;100.00;100728.56;5110660;28;20057;-90
2023/05/15 00:47:33;;;;;;;2.78;1.92;;;14.40;99.90;;;14.69;100.00;100729.44;5135988;28;20425;-91
2023/05/15 00:50:07;;;;;;;3.47;2.25;;;14.50;99.90;;;14.70;100.00;100725.94;5108497;28;20468;-91
2023/05/15 00:52:40;;;;;;;3.75;2.20;;;14.50;99.90;;;14.72;100.00;100732.09;5088271;28;20039;-90
2023/05/15 00:55:14;;;;;;;5.03;2.63;;;14.50;99.90;;;14.63;100.00;100730.22;5112457;28;20046;-91
2023/05/15 00:57:48;;;;;;;5.03;3.08;;;14.40;99.90;;;14.48;100.00;100726.44;5119533;28;20059;-90
2023/05/15 01:00:21;;;;;;;4.53;2.83;;;14.30;99.90;;;14.40;100.00;100734.13;5103898;28;20121;-92
2023/05/15 01:02:54;;;;;;;3.95;2.72;;;14.30;99.90;;;14.39;100.00;100725.38;5124923;28;20289;-91
2023/05/15 01:05:27;;;;;;;4.07;2.40;;;14.30;99.90;;;14.38;100.00;100721.00;5128963;28;20074;-92
2023/05/15 01:08:07;;;;;;;3.75;2.67;;;14.20;99.90;;;14.40;100.00;100721.88;5139105;28;20070;-92
2023/05/15 01:10:44;;;;;;;3.15;2.15;;;14.20;99.90;;;14.41;100.00;100722.81;5092791;28;20055;-90
2023/05/15 01:13:20;;;;;;;3.45;2.30;;;14.20;99.90;;;14.43;100.00;100725.44;5124335;29;20051;-91
2023/05/15 01:15:55;;;;;;;3.42;2.42;;;14.20;99.90;;;14.43;100.00;100720.19;5141640;28;20039;-90
2023/05/15 01:18:31;;;;;;;3.45;2.20;;;14.20;99.90;;;14.39;100.00;100720.13;5130805;28;20047;-89
2023/05/15 01:22:24;;;;;;;4.32;2.63;;;14.20;99.90;;;14.37;100.00;100720.97;5124140;28;20093;-91
2023/05/15 01:25:35;;;;;;;2.95;2.10;;;14.10;99.90;;;14.34;100.00;100711.31;5114498;28;20055;-90
2023/05/15 01:28:14;;;;;;;3.08;2.28;;;14.10;99.90;;;14.31;100.00;100719.13;5119627;28;20511;-91
2023/05/15 01:30:50;;;;;;;2.90;1.95;;;14.10;99.90;;;14.26;100.00;100722.50;5118402;28;20050;-92
2023/05/15 01:33:30;;;;;;;2.42;2.00;;;14.00;99.90;;;14.19;100.00;100715.38;5115365;28;20101;-91
2023/05/15 01:36:15;;;;;;;3.75;1.83;;;14.00;99.90;;;14.14;100.00;100717.91;5130572;28;20055;-90
2023/05/15 01:38:54;;;;;;;3.05;2.03;;;13.90;99.90;;;14.08;100.00;100725.66;5115701;28;20043;-90
2023/05/15 01:41:30;;;;;;;3.25;2.45;;;13.90;99.90;;;14.05;100.00;100725.59;5118830;28;20058;-90
2023/05/15 01:44:08;;;;;;;3.65;2.42;;;13.80;99.90;;;14.03;100.00;100724.69;5120910;28;20050;-90
2023/05/15 01:46:46;;;;;;;3.75;2.10;;;13.80;99.90;;;13.98;100.00;100718.47;5135038;28;20440;-90
2023/05/15 01:49:24;;;;;;;3.60;2.45;;;13.70;99.90;;;13.93;100.00;100723.63;5107982;28;20081;-90
2023/05/15 01:52:07;;;;;;;3.22;2.10;;;13.70;99.90;;;13.89;100.00;100716.56;5145624;28;20055;-91
2023/05/15 01:54:42;;;;;;;3.28;2.15;;;13.70;99.90;;;13.85;100.00;100723.47;5097122;28;20404;-91
2023/05/15 01:57:18;;;;;;;4.15;2.75;;;13.60;99.90;;;13.85;100.00;100723.47;5126658;28;20082;-91
2023/05/15 01:59:53;;;;;;;3.53;2.42;;;13.60;99.90;;;13.87;100.00;100720.88;5140521;28;20057;-90
2023/05/15 02:02:27;;;;;;;4.40;2.72;;;13.60;99.90;;;13.90;100.00;100722.69;5138543;28;20051;-91
2023/05/15 02:05:02;;;;;;;5.40;2.60;;;13.70;99.90;;;13.95;100.00;100716.66;5150804;28;20047;-93
2023/05/15 02:07:36;;;;;;;5.75;2.60;;;13.70;99.90;;;13.98;100.00;100715.84;5105949;28;20058;-89
2023/05/15 02:10:10;;;;;;;4.78;2.50;;;13.70;99.90;;;14.03;100.00;100715.09;5134188;28;20575;-90
2023/05/15 02:12:43;;;;;;;4.10;2.42;;;13.80;99.90;;;14.06;100.00;100728.25;5127027;28;20047;-91
2023/05/15 02:15:18;;;;;;;3.22;2.55;;;13.80;99.90;;;14.11;100.00;100723.97;5075265;28;20055;-91
2023/05/15 02:17:52;;;;;;;3.53;2.47;;;13.80;99.90;;;14.17;100.00;100724.97;5125744;28;20049;-91
2023/05/15 02:20:26;;;;;;;4.75;2.60;;;13.90;99.90;;;14.22;100.00;100718.06;5093816;29;20047;-90
2023/05/15 02:23:01;;;;;;;6.22;3.03;;;14.00;99.90;;;14.28;100.00;100711.22;5137683;28;20047;-90
2023/05/15 02:25:45;;;;;;;7.47;4.05;;;14.00;99.90;;;14.39;100.00;100717.50;5115871;28;20053;-92
2023/05/15 02:28:32;;;;;;;8.77;4.57;;;14.10;99.90;;;14.48;100.00;100719.47;5135678;28;20146;-91
2023/05/15 02:31:14;;;;;;;11.15;5.45;;;14.20;99.90;;;14.55;100.00;100712.59;5126022;28;20063;-90
2023/05/15 02:33:54;;;;;;;9.68;5.70;;;14.30;99.90;;;14.62;100.00;100711.84;5131708;28;20496;-89
2023/05/15 02:36:33;;;;;;;16.77;7.25;;;14.40;99.90;;;14.66;100.00;100708.38;5117600;28;20446;-89
2023/05/15 02:39:06;;;;;;;14.32;7.43;;;14.40;99.90;;;14.70;100.00;100711.94;5137382;28;20051;-90
2023/05/15 02:41:40;;;;;;;13.73;7.75;;;14.40;99.90;;;14.75;100.00;100719.06;5127680;28;20044;-91
2023/05/15 02:44:15;;;;;;;13.52;7.32;;;14.50;99.90;;;14.80;100.00;100717.38;5123759;28;20090;-89
2023/05/15 02:46:50;;;;;;;23.48;9.40;;;14.50;99.90;;;14.83;100.00;100713.91;5146675;28;20129;-91
2023/05/15 02:49:24;;;;;;;19.08;8.65;;;14.60;99.90;;;14.85;100.00;100713.06;5119706;28;20047;-91
2023/05/15 02:51:56;;;;;;;19.73;8.57;;;14.60;99.90;;;14.85;100.00;100707.81;5136495;28;20376;-91
2023/05/15 02:54:29;;;;;;;17.35;8.20;;;14.60;99.90;;;14.91;100.00;100707.94;5117766;29;20530;-92
2023/05/15 02:57:01;;;;;;;18.52;7.85;;;14.70;99.90;;;14.96;100.00;100709.75;5111672;28;20050;-92
2023/05/15 02:59:34;;;;;;;17.88;9.02;;;14.70;99.90;;;15.00;100.00;100722.06;5137872;28;20058;-91
2023/05/15 03:02:09;;;;;;;23.77;10.43;;;14.70;99.90;;;14.99;100.00;100723.78;5128456;28;20078;-90
2023/05/15 03:04:41;;;;;;;25.08;10.13;;;14.80;99.90;;;15.00;100.00;100719.44;5131483;28;20046;-90
2023/05/15 03:07:14;;;;;;;23.75;10.30;;;14.80;99.90;;;15.03;100.00;100719.47;5146265;28;20065;-91
2023/05/15 03:09:48;;;;;;;28.00;10.77;;;14.80;99.90;;;15.05;100.00;100717.75;5095482;28;20104;-90
2023/05/15 03:12:20;;;;;;;29.60;11.52;;;14.80;99.90;;;15.02;100.00;100717.72;5094833;29;20047;-91
2023/05/15 03:14:52;;;;;;;25.75;10.82;;;14.80;99.90;;;15.04;100.00;100716.88;5143323;28;20163;-89
2023/05/15 03:17:26;;;;;;;30.30;12.30;;;14.80;99.90;;;15.06;100.00;100719.50;5114884;28;20057;-89
2023/05/15 03:19:59;;;;;;;30.08;11.88;;;14.80;99.90;;;15.07;100.00;100716.06;5136686;28;20476;-90
2023/05/15 03:22:32;;;;;;;33.45;13.20;;;14.80;99.90;;;15.08;100.00;100720.44;5132619;28;20043;-92
2023/05/15 03:25:05;;;;;;;29.40;12.73;;;14.80;99.90;;;15.06;100.00;100719.50;5127228;28;20078;-91
2023/05/15 03:27:37;;;;;;;30.40;12.52;;;14.80;99.90;;;15.06;100.00;100720.44;5103407;29;20047;-91
2023/05/15 03:30:11;;;;;;;33.78;13.35;;;14.80;99.90;;;15.07;100.00;100716.94;5144784;28;20065;-91
2023/05/15 03:32:44;;;;;;;30.13;12.98;;;14.80;99.90;;;15.08;100.00;100718.69;5115297;28;20070;-91
2023/05/15 03:35:17;;;;;;;34.70;14.23;;;14.80;99.90;;;15.07;100.00;100721.31;5102748;28;20058;-92
2023/05/15 03:37:49;;;;;;;33.53;14.05;;;14.80;99.90;;;15.08;100.00;100721.31;5142445;28;20049;-91
2023/05/15 03:40:22;;;;;;;33.67;13.68;;;14.80;99.90;;;15.08;100.00;100718.69;5146871;28;20050;-92
2023/05/15 03:42:55;;;;;;;37.83;15.25;;;14.80;99.90;;;15.06;100.00;100725.69;5098703;28;20039;-92
2023/05/15 03:45:27;;;;;;;39.85;16.58;;;14.80;99.90;;;15.05;100.00;100723.00;5145959;28;20057;-90
2023/05/15 03:48:01;;;;;;;37.42;15.35;;;14.80;99.90;;;15.04;100.00;100716.00;5146007;28;20039;-91
2023/05/15 03:50:34;;;;;;;36.95;15.38;;;14.80;99.90;;;15.07;100.00;100721.31;5126382;28;20397;-91
2023/05/15 03:53:07;;;;;;;42.20;18.00;;;14.80;99.90;;;15.07;100.00;100721.31;5141967;28;20114;-92
2023/05/15 03:55:42;;;;;;;41.33;17.17;;;14.80;99.90;;;15.03;100.00;100720.38;5116886;28;20047;-92
2023/05/15 03:58:14;;;;;;;41.28;17.33;;;14.80;99.90;;;15.01;100.00;100722.09;5109864;28;20110;-92
2023/05/15 04:00:47;;;;;;;49.10;18.65;;;14.80;99.90;;;14.99;100.00;100722.91;5126658;28;20047;-91
2023/05/15 04:03:21;;;;;;;41.75;16.65;;;14.80;99.90;;;14.99;100.00;100731.66;5115395;28;20038;-92
2023/05/15 04:05:54;;;;;;;50.42;17.75;;;14.80;99.90;;;15.00;100.00;100719.44;5121828;28;20047;-90
2023/05/15 04:08:27;;;;;;;46.45;18.15;;;14.70;99.90;;;14.97;100.00;100724.63;5121956;28;20078;-91
2023/05/15 04:11:00;;;;;;;45.53;17.65;;;14.70;99.90;;;14.91;100.00;100736.78;5127569;28;20051;-92
2023/05/15 04:13:33;;;;;;;41.28;16.42;;;14.70;99.90;;;14.91;100.00;100730.66;5123899;28;20121;-91
2023/05/15 04:16:07;;;;;;;39.55;15.65;;;14.70;99.90;;;14.93;100.00;100732.47;5150008;28;20498;-92
2023/05/15 04:18:41;;;;;;;35.30;15.50;;;14.70;99.90;;;14.95;100.00;100726.38;5116627;28;20054;-91
2023/05/15 04:21:13;;;;;;;41.75;16.25;;;14.70;99.90;;;14.98;100.00;100729.03;5121185;28;20453;-91
2023/05/15 04:23:45;;;;;;;37.17;15.48;;;14.70;99.90;;;14.98;100.00;100726.41;5133513;28;20070;-91
2023/05/15 04:26:18;;;;;;;41.30;16.80;;;14.70;99.90;;;14.98;100.00;100729.91;5141814;28;20066;-90
2023/05/15 04:28:51;;;;;;;38.63;14.70;;;14.70;99.90;;;14.98;100.00;100721.16;5137603;28;20043;-90
2023/05/15 04:31:24;;;;;;;34.10;14.73;;;14.70;99.90;;;15.01;100.00;100722.09;5129346;28;20043;-90
2023/05/15 04:34:00;;;;;;;31.98;13.88;;;14.80;99.90;;;15.03;100.00;100723.00;5129376;28;20043;-92
2023/05/15 04:36:33;;;;;;;42.53;17.10;;;14.80;99.90;;;15.03;100.00;100727.34;5113549;28;20043;-91
2023/05/15 04:39:07;;;;;;;36.13;15.05;;;14.80;99.90;;;15.02;100.00;100722.97;5137629;28;20436;-91
2023/05/15 04:41:41;;;;;;;36.97;15.30;;;14.80;99.90;;;15.03;100.00;100720.38;5129153;28;20050;-90
2023/05/15 04:44:16;;;;;;;37.75;14.77;;;14.80;99.90;;;15.01;100.00;100729.09;5118592;28;20039;-91
2023/05/15 04:46:49;;;;;;;36.10;15.80;;;14.80;99.90;;;15.00;100.00;100736.09;5109372;28;20520;-92
2023/05/15 04:49:23;;;;;;;38.17;15.45;;;14.80;99.90;;;15.00;100.00;100724.69;5109579;28;20057;-91
2023/05/15 04:51:56;;;;;;;34.90;15.27;;;14.80;99.90;;;15.00;100.00;100733.47;5157724;28;20039;-92
2023/05/15 04:54:28;;;;;;;41.72;16.63;;;14.80;99.90;;;15.01;100.00;100734.34;5135497;28;20039;-91
2023/05/15 04:57:00;;;;;;;41.25;17.40;;;14.80;99.90;;;14.99;100.00;100730.78;5148939;28;20050;-91
2023/05/15 04:59:33;;;;;;;41.35;17.52;;;14.80;99.90;;;14.99;100.00;100736.03;5144116;28;20042;-92
2023/05/15 05:02:05;;;;;;;44.63;17.65;;;14.70;99.90;;;14.93;100.00;100732.47;5117744;28;20542;-89
2023/05/15 05:04:44;;;;;;;40.15;16.55;;;14.70;99.90;;;14.91;100.00;100731.53;5093416;29;20047;-92
2023/05/15 05:07:17;;;;;;;40.95;17.27;;;14.70;99.90;;;14.89;100.00;100733.28;5144192;28;20047;-90
2023/05/15 05:09:50;;;;;;;44.47;17.80;;;14.70;99.90;;;14.88;100.00;100734.13;5128877;28;20089;-89
2023/05/15 05:12:22;;;;;;;43.53;17.30;;;14.70;99.90;;;14.86;100.00;100735.81;5128657;28;20415;-90
2023/05/15 05:14:55;;;;;;;51.38;20.17;;;14.70;99.90;;;14.86;100.00;100748.94;5137671;28;20097;-90
2023/05/15 05:17:29;;;;;;;48.42;18.02;;;14.60;99.90;;;14.82;100.00;100747.16;5138128;28;20053;-90
2023/05/15 05:20:07;;;;;;;50.28;20.48;;;14.60;99.90;;;14.77;100.00;100738.31;5126333;28;20049;-90
2023/05/15 05:22:41;;;;;;;52.60;20.40;;;14.60;99.90;;;14.76;100.00;100749.66;5144743;28;20148;-92
2023/05/15 05:25:13;;;;;;;51.80;20.52;;;14.60;99.90;;;14.75;100.00;100750.53;5121106;28;20073;-90
2023/05/15 05:27:46;;;;;;;44.22;17.85;;;14.50;99.90;;;14.76;100.00;100751.41;5137451;28;20142;-93
2023/05/15 05:30:18;;;;;;;47.67;18.08;;;14.50;99.90;;;14.77;100.00;100748.81;5117159;28;20139;-90
2023/05/15 05:32:51;;;;;;;48.40;19.70;;;14.60;99.90;;;14.78;100.00;100747.94;5116210;28;20514;-91
2023/05/15 05:35:27;;;;;;;46.78;19.50;;;14.60;99.90;;;14.77;100.00;100746.19;5120335;28;20078;-91
2023/05/15 05:37:59;;;;;;;44.45;18.20;;;14.50;99.90;;;14.79;100.00;100749.72;5136725;28;20078;-91
2023/05/15 05:40:32;;;;;;;41.10;16.92;;;14.60;99.90;;;14.81;100.00;100755.00;5139531;28;20050;-89
2023/05/15 05:43:05;;;;;;;43.00;17.63;;;14.60;99.90;;;14.80;100.00;100754.13;5117080;28;20053;-91
2023/05/15 05:45:38;;;;;;;47.00;18.83;;;14.60;99.90;;;14.77;100.00;100753.19;5115693;28;20043;-91
2023/05/15 05:48:10;;;;;;;49.85;20.65;;;14.50;99.90;;;14.71;100.00;100758.31;5110482;28;20577;-91
2023/05/15 05:50:46;;;;;;;46.85;18.25;;;14.60;99.90;;;14.68;100.00;100759.16;5110944;28;20039;-91
2023/05/15 05:53:22;;;;;;;43.20;18.17;;;14.50;99.90;;;14.63;100.00;100752.94;5132261;28;20050;-91
2023/05/15 05:55:56;;;;;;;45.38;18.63;;;14.50;99.90;;;14.62;100.00;100759.94;5117133;28;20051;-91
2023/05/15 05:58:28;;;;;;;45.95;19.70;;;14.40;99.90;;;14.63;100.00;100763.44;5128754;28;20054;-91
2023/05/15 06:01:01;;;;;;;42.08;17.15;;;14.40;99.90;;;14.64;100.00;100754.69;5127309;28;20414;-91
2023/05/15 06:03:33;;;;;;;42.65;17.52;;;14.40;99.90;;;14.70;100.00;100757.44;5132204;28;20101;-87
2023/05/15 06:06:08;;;;;;;39.00;16.05;;;14.50;99.90;;;14.76;100.00;100768.03;5137843;28;20054;-84
2023/05/15 06:08:41;;;;;;;37.40;16.73;;;14.50;99.90;;;14.82;100.00;100762.91;5114163;29;20055;-83
2023/05/15 06:11:13;;;;;;;33.22;14.57;;;14.50;99.90;;;14.85;100.00;100765.56;5131129;28;20122;-82
2023/05/15 06:13:45;;;;;;;39.80;15.57;;;14.60;99.90;;;14.88;100.00;100760.38;5132932;28;20418;-84
2023/05/15 06:16:20;;;;;;;48.80;18.60;;;14.60;99.90;;;14.86;100.00;100762.06;5121081;28;20042;-82
2023/05/15 06:18:57;;;;;;;50.63;20.67;;;14.60;99.90;;;14.84;100.00;100761.16;5105991;29;20050;-83
2023/05/15 06:21:31;;;;;;;47.35;17.95;;;14.60;99.90;;;14.84;100.00;100755.94;5118295;28;20042;-83
2023/05/15 06:24:04;;;;;;;50.03;20.13;;;14.60;99.90;;;14.80;100.00;100756.75;5125158;28;20034;-83
2023/05/15 06:26:36;;;;;;;48.92;18.83;;;14.60;99.90;;;14.80;100.00;100754.13;5114772;29;20738;-83
2023/05/15 06:29:09;;;;;;;43.92;18.17;;;14.60;99.90;;;14.78;100.00;100758.44;5137840;28;20059;-83
2023/05/15 06:31:42;;;;;;;51.67;19.63;;;14.60;99.90;;;14.76;100.00;100768.03;5103923;28;20051;-85
2023/05/15 06:34:14;;;;;;;39.10;17.30;;;14.60;99.90;;;14.77;100.00;100763.66;5112288;28;20061;-83
2023/05/15 06:36:49;;;;;;;45.25;19.42;;;14.50;99.90;;;14.80;100.00;100758.47;5138352;28;20062;-84
2023/05/15 06:39:21;;;;;;;;;;;14.60;99.90;;;14.80;100.00;100774.22;5128679;28;20046;-84
2023/05/15 06:41:57;;;;;;;40.22;16.63;;;14.60;99.90;;;14.82;100.00;100772.53;5128853;28;19926;-82
2023/05/15 06:44:34;;;;;;;32.22;14.65;;;14.60;99.90;;;14.82;100.00;100765.53;5113909;28;20045;-82
2023/05/15 06:47:07;;;;;;;32.72;14.52;;;14.60;99.90;;;14.83;100.00;100769.91;5144723;28;20062;-83
2023/05/15 06:49:41;;;;;;;34.38;15.10;;;14.60;99.90;;;14.85;100.00;100772.56;5132692;28;20119;-81
2023/05/15 06:52:16;;;;;;;31.02;14.13;;;14.60;99.90;;;14.89;100.00;100779.63;5112326;28;20089;-81
2023/05/15 06:54:49;;;;;;;26.95;12.82;;;14.70;99.90;;;14.91;100.00;100772.66;5144338;28;20058;-79
2023/05/15 06:57:25;;;;;;;41.30;18.73;;;14.70;99.90;;;14.91;100.00;100776.16;5140424;28;20133;-80
2023/05/15 06:59:57;;;;;;;30.35;15.00;;;14.70;99.90;;;14.93;100.00;100787.59;5133455;28;20042;-79
2023/05/15 07:02:32;;;;;;;32.22;15.40;;;14.70;99.90;;;14.99;100.00;100780.66;5131653;28;20435;-80
2023/05/15 07:05:05;;;;;;;36.80;15.98;;;14.70;99.90;;;14.98;100.00;100787.66;5136682;28;20550;-80
2023/05/15 07:07:39;;;;;;;46.45;19.33;;;14.70;99.90;;;14.91;100.00;100788.41;5117492;28;20061;-79
2023/05/15 07:10:12;;;;;;;32.00;14.73;;;14.70;99.90;;;14.88;100.00;100784.00;5115896;28;20400;-83
2023/05/15 07:12:44;;;;;;;37.25;16.45;;;14.70;99.90;;;14.98;100.00;100779.78;5121367;28;20047;-79
2023/05/15 07:15:17;;;;;;;46.88;20.75;;;14.80;99.90;;;15.00;100.00;100787.69;5122952;28;20529;-82
2023/05/15 07:17:50;;;;;;;42.30;19.02;;;14.80;99.90;;;14.92;100.00;100785.78;5122839;28;20043;-79
2023/05/15 07:20:23;;;;;;;44.90;19.55;;;14.70;99.90;;;14.82;100.00;100791.78;5106002;28;20047;-82
2023/05/15 07:22:57;;;;;;;44.08;19.33;;;14.70;99.90;;;14.77;100.00;100787.28;5107441;29;20047;-79
2023/05/15 07:25:30;;;;;;;42.42;19.27;;;14.60;99.90;;;14.75;100.00;100789.91;5123066;28;20050;-79
2023/05/15 07:28:03;;;;;;;43.05;20.27;;;14.60;99.90;;;14.77;100.00;100789.91;5124702;28;20046;-79
2023/05/15 07:30:36;;;;;;;45.45;20.83;;;14.60;99.90;;;14.74;100.00;100796.00;5104696;28;20042;-80
2023/05/15 07:33:09;;;;;;;41.83;18.75;;;14.50;99.90;;;14.75;100.00;100797.75;5141642;28;20051;-82
2023/05/15 07:35:42;;;;;;;37.38;17.33;;;14.50;99.90;;;14.81;100.00;100797.88;5101319;29;20035;-82
2023/05/15 07:38:17;;;;;;;39.22;17.38;;;14.60;99.90;;;14.85;100.00;100799.69;5123007;28;20059;-82
2023/05/15 07:40:49;;;;;;;42.45;18.23;;;14.60;99.90;;;14.89;100.00;100805.88;5121760;28;20039;-81
2023/05/15 07:43:25;;;;;;;48.63;20.00;;;14.70;99.90;;;14.85;100.00;100802.31;5114790;28;20058;-82
2023/05/15 07:45:58;;;;;;;43.67;19.17;;;14.70;99.90;;;14.87;100.00;100802.34;5122492;28;20627;-79
2023/05/15 07:48:30;;;;;;;45.08;20.25;;;14.70;99.90;;;14.88;100.00;100805.00;5140355;28;20051;-83
2023/05/15 07:51:05;;;;;;;42.90;19.45;;;14.60;99.90;;;14.93;100.00;100803.34;5123298;28;20502;-80
2023/05/15 07:53:38;;;;;;;40.42;17.95;;;14.70;99.90;;;14.92;100.00;100805.91;5126748;28;20049;-81
2023/05/15 07:56:11;;;;;;;37.53;17.08;;;14.70;99.90;;;14.93;100.00;100805.97;5134963;28;20043;-81
2023/05/15 07:58:43;;;;;;;46.85;19.63;;;14.70;99.90;;;14.95;100.00;100800.75;5096891;28;20125;-79
2023/05/15 08:01:17;;;;;;;40.03;18.60;;;14.70;99.90;;;14.93;100.00;100803.34;5124178;28;20054;-78
2023/05/15 08:03:50;;;;;;;42.17;18.35;;;14.70;99.90;;;14.89;100.00;100796.25;5106038;28;20074;-80
2023/05/15 08:06:23;;;;;;;40.47;17.85;;;14.70;99.90;;;14.86;100.00;100801.44;5110900;28;20063;-80
2023/05/15 08:09:00;;;;;;;38.15;18.08;;;14.70;99.90;;;14.83;100.00;100804.03;5112524;28;20043;-80
2023/05/15 08:11:33;;;;;;;36.83;16.58;;;14.60;99.90;;;14.85;100.00;100798.78;5107856;28;20047;-81
2023/05/15 08:14:05;;;;;;;42.15;18.05;;;14.70;99.90;;;14.90;100.00;100802.38;5114070;28;20055;-81
2023/05/15 08:16:38;;;;;;;39.45;18.52;;;14.70;99.90;;;14.88;100.00;100805.00;5117710;28;20046;-79
2023/05/15 08:19:11;;;;;;;38.63;18.52;;;14.70;99.90;;;14.83;100.00;100809.28;5119928;28;20051;-80
2023/05/15 08:21:43;;;;;;;42.88;19.63;;;14.70;99.90;;;14.80;100.00;100801.38;5125293;28;20054;-81
2023/05/15 08:24:17;;;;;;;47.63;21.70;;;14.70;99.90;;;14.80;100.00;100798.75;5108656;28;20039;-79
2023/05/15 08:26:51;;;;;;;45.35;20.52;;;14.60;99.90;;;14.78;100.00;100803.06;5116200;28;20142;-79
2023/05/15 08:29:23;;;;;;;40.03;18.67;;;14.60;99.90;;;14.81;100.00;100808.38;5105431;28;20050;-81
2023/05/15 08:31:56;;;;;;;46.08;19.65;;;14.60;99.90;;;14.89;100.00;100806.75;5116750;28;20043;-79
2023/05/15 08:34:30;;;;;;;48.33;20.05;;;14.70;99.90;;;14.88;100.00;100804.13;5113884;28;20043;-80
2023/05/15 08:37:02;;;;;;;44.10;19.05;;;14.70;99.90;;;14.86;100.00;100811.06;5126399;28;20558;-80
2023/05/15 08:39:38;;;;;;;45.45;20.38;;;14.60;99.90;;;14.83;100.00;100804.03;5117562;28;20137;-80
2023/05/15 08:42:20;;;;;;;51.22;22.33;;;14.60;99.90;;;14.83;100.00;100804.03;5093099;28;20070;-80
2023/05/15 08:44:53;;;;;;;40.08;18.52;;;14.60;99.90;;;14.85;100.00;100807.56;5102742;29;20094;-78
2023/05/15 08:47:28;;;;;;;50.83;22.13;;;14.60;99.90;;;14.92;100.00;100801.53;5107082;28;20047;-79
2023/05/15 08:50:09;;;;;;;38.28;17.60;;;14.70;99.90;;;14.98;100.00;100799.88;5120726;28;20537;-80
2023/05/15 08:52:45;;;;;;;41.10;18.10;;;14.70;99.90;;;14.98;100.00;100799.88;5086489;28;20078;-80
2023/05/15 08:55:19;;;;;;;45.58;19.02;;;14.70;99.90;;;14.97;100.00;100803.38;5125482;28;20042;-81
2023/05/15 08:57:53;;;;;;;41.95;18.63;;;14.70;99.90;;;14.97;100.00;100808.63;5120356;28;20069;-81
2023/05/15 09:00:26;;;;;;;40.60;18.02;;;14.70;99.90;;;14.94;100.00;100809.47;5122611;28;20070;-79
2023/05/15 09:03:03;;;;;;;39.00;17.38;;;14.70;99.90;;;14.90;100.00;100803.28;5119740;28;20534;-79
2023/05/15 09:05:35;;;;;;;42.15;18.95;;;14.70;99.90;;;14.90;100.00;100807.63;5121570;28;20553;-78
2023/05/15 09:08:09;;;;;;;40.72;18.60;;;14.70;99.90;;;14.91;100.00;100810.28;5121832;28;20043;-79
2023/05/15 09:10:43;;;;;;;35.35;16.92;;;14.70;99.90;;;14.98;100.00;100805.13;5124737;28;20058;-79
2023/05/15 09:13:16;;;;;;;44.47;18.27;;;14.70;99.90;;;15.04;100.00;100806.13;5124683;28;20051;-80
2023/05/15 09:15:51;;;;;;;38.95;16.88;;;14.70;99.90;;;15.06;100.00;100799.19;5119430;28;20048;-80
2023/05/15 09:18:23;;;;;;;35.85;15.63;;;14.80;99.90;;;15.14;100.00;100804.56;5121137;28;20060;-80
2023/05/15 09:20:56;;;;;;;37.22;17.83;;;14.80;99.90;;;15.22;100.00;100795.06;5119608;28;20418;-79
2023/05/15 09:23:29;;;;;;;33.85;15.18;;;14.90;99.90;;;15.25;100.00;100799.47;5124214;28;20047;-78
2023/05/15 09:26:04;;;;;;;35.17;17.10;;;14.90;99.90;;;15.31;100.00;100804.81;5124708;28;20059;-79
2023/05/15 09:28:38;;;;;;;38.10;17.92;;;15.00;99.90;;;15.32;100.00;100798.69;5141672;28;20074;-80
2023/05/15 09:31:13;;;;;;;29.98;15.32;;;15.00;99.90;;;15.39;100.00;100804.09;5108785;28;20051;-79
2023/05/15 09:33:46;;;;;;;29.65;14.20;;;15.10;99.90;;;15.46;100.00;100792.81;5120014;29;20054;-79
2023/05/15 09:36:22;;;;;;;30.02;14.70;;;15.20;99.90;;;15.60;100.00;100794.75;5124492;28;20701;-80
2023/05/15 09:38:59;;;;;;;27.38;13.75;;;15.20;99.90;;;15.68;100.00;100801.03;5123596;28;20043;-78
2023/05/15 09:41:33;;;;;;;30.80;14.68;;;15.30;99.90;;;15.87;100.00;100802.16;5129032;28;20433;-79
2023/05/15 09:44:19;;;;;;;39.28;19.05;;;15.50;99.90;;;16.11;100.00;100791.09;5120584;28;20134;-79
2023/05/15 09:46:52;;;;;;;33.45;16.95;;;15.60;99.90;;;16.36;100.00;100798.38;5142463;28;20146;-79
2023/05/15 09:49:25;;;;;;;38.63;18.52;;;15.80;99.90;;;16.48;100.00;100800.25;5116367;28;20051;-78
2023/05/15 09:51:59;;;;;;;33.40;15.73;;;16.00;99.90;;;16.46;100.00;100795.00;5100824;28;20050;-80
2023/05/15 09:54:32;;;;;;;30.13;15.70;;;16.00;99.90;;;16.52;100.00;100795.06;5141640;28;20054;-81
2023/05/15 09:57:14;;;;;;;30.30;15.70;;;16.10;99.90;;;16.78;100.00;100791.84;5125135;28;20079;-81
2023/05/15 09:59:48;;;;;;;34.75;17.85;;;16.30;99.90;;;17.11;100.00;100793.00;5109328;28;20047;-81
2023/05/15 10:02:26;;;;;;;31.83;15.30;;;16.50;99.90;;;17.47;100.00;100795.91;5149164;28;20061;-78
2023/05/15 10:04:59;;;;;;;29.55;15.48;;;16.80;99.90;;;17.84;100.00;100796.16;5123096;28;20049;-78
2023/05/15 10:07:34;;;;;;;28.63;14.77;;;17.00;99.90;;;18.19;100.00;100785.75;5138114;28;20059;-82
2023/05/15 10:10:08;;;;;;;25.65;13.15;;;17.40;99.90;;;18.64;100.00;100782.34;5128973;28;20040;-80
2023/05/15 10:12:42;;;;;;;23.52;12.52;;;17.80;99.90;;;19.07;100.00;100778.91;5143341;28;20396;-77
2023/05/15 10:15:16;;;;;;;21.08;12.10;;;18.20;99.90;;;19.46;97.96;100776.22;5130315;28;20095;-78
2023/05/15 10:17:49;;;;;;;20.88;10.77;;;18.60;99.90;;;19.90;96.63;100777.03;5158182;28;20082;-79
2023/05/15 10:20:25;;;;;;;18.92;11.02;;;19.00;99.90;;;20.30;94.20;100772.44;5139686;28;20055;-78
2023/05/15 10:22:58;;;;;;;21.02;12.13;;;19.40;99.90;;;20.54;91.89;100776.75;5128806;28;20050;-81
2023/05/15 10:25:39;;;;;;;20.67;11.57;;;19.60;99.90;;;20.66;90.29;100765.16;5143687;28;20454;-77
2023/05/15 10:28:14;;;;;;;21.75;12.40;;;19.80;99.90;;;20.67;89.45;100767.84;5117656;28;20063;-77